createdAt,value
2018-05-03T00:00:59.181Z,6.50
2018-05-03T00:03:27.916Z,5.90
2018-05-03T00:05:55.851Z,6.50
2018-05-03T00:08:26.036Z,6.40
2018-05-03T00:10:54.545Z,6.03
2018-05-03T00:13:22.536Z,6.40
2018-05-03T00:15:50.604Z,6.90
2018-05-03T00:18:18.780Z,6.77
2018-05-03T00:20:47.930Z,6.40
2018-05-03T00:23:16.551Z,6.70
2018-05-03T00:25:44.564Z,6.30
2018-05-03T00:28:12.591Z,6.87
2018-05-03T00:30:40.588Z,7.33
2018-05-03T00:33:08.575Z,6.20
2018-05-03T00:35:36.604Z,6.97
2018-05-03T00:38:04.611Z,6.57
2018-05-03T00:40:32.640Z,6.73
2018-05-03T00:43:01.101Z,6.20
2018-05-03T00:45:29.922Z,6.73
2018-05-03T00:47:57.879Z,6.23
2018-05-03T00:50:25.884Z,6.13
2018-05-03T00:52:53.878Z,6.60
2018-05-03T00:55:22.638Z,7.00
2018-05-03T00:57:50.681Z,6.67
2018-05-03T01:00:18.708Z,7.13
2018-05-03T01:02:47.448Z,6.23
2018-05-03T01:05:16.088Z,7.00
2018-05-03T01:07:44.050Z,6.20
2018-05-03T01:10:12.059Z,6.33
2018-05-03T01:12:40.052Z,6.30
2018-05-03T01:15:07.994Z,6.90
2018-05-03T01:17:36.103Z,6.60
2018-05-03T01:20:04.099Z,6.87
2018-05-03T01:22:32.110Z,6.87
2018-05-03T01:25:00.832Z,6.53
2018-05-03T01:27:29.746Z,7.33
2018-05-03T01:29:58.036Z,7.07
2018-05-03T01:32:26.794Z,6.77
2018-05-03T01:35:06.446Z,6.07
2018-05-03T01:37:34.446Z,7.03
2018-05-03T01:40:03.207Z,6.80
2018-05-03T01:42:31.171Z,6.60
2018-05-03T01:44:59.180Z,7.17
2018-05-03T01:47:27.191Z,7.17
2018-05-03T01:49:55.186Z,7.03
2018-05-03T01:52:23.131Z,6.70
2018-05-03T01:54:51.179Z,7.37
2018-05-03T01:57:19.120Z,7.27
2018-05-03T01:59:47.199Z,7.07
2018-05-03T02:02:15.296Z,8.07
2018-05-03T02:04:43.273Z,6.50
2018-05-03T02:07:11.262Z,7.17
2018-05-03T02:09:39.157Z,7.27
2018-05-03T02:12:07.881Z,7.17
2018-05-03T02:14:35.924Z,7.30
2018-05-03T02:17:04.111Z,7.50
2018-05-03T02:19:32.036Z,7.70
2018-05-03T02:22:00.894Z,7.53
2018-05-03T02:24:28.857Z,7.77
2018-05-03T02:26:56.749Z,7.67
2018-05-03T02:29:24.668Z,8.10
2018-05-03T02:31:54.046Z,7.50
2018-05-03T02:34:22.774Z,7.50
2018-05-03T02:36:50.734Z,7.77
2018-05-03T02:39:18.687Z,7.40
2018-05-03T02:44:20.772Z,8.63
2018-05-03T02:46:49.697Z,7.60
2018-05-03T02:49:17.657Z,7.80
2018-05-03T02:51:45.646Z,8.10
2018-05-03T02:54:14.531Z,8.07
2018-05-03T02:56:43.347Z,8.63
2018-05-03T02:59:22.952Z,8.10
2018-05-03T03:01:57.152Z,7.60
2018-05-03T03:04:43.036Z,8.33
2018-05-03T03:07:33.174Z,8.03
2018-05-03T03:10:23.411Z,7.80
2018-05-03T03:13:34.655Z,8.67
2018-05-03T03:16:22.685Z,8.53
2018-05-03T03:22:03.636Z,9.50
2018-05-03T03:24:50.719Z,9.27
2018-05-03T03:30:40.626Z,9.40
2018-05-03T03:33:19.981Z,9.93
2018-05-03T03:36:00.092Z,11.17
2018-05-03T03:38:40.217Z,10.80
2018-05-03T03:41:19.589Z,11.37
2018-05-03T03:43:59.188Z,12.07
2018-05-03T03:46:26.756Z,12.30
2018-05-03T03:48:54.350Z,11.70
2018-05-03T03:51:22.654Z,12.17
2018-05-03T03:53:50.184Z,13.40
2018-05-03T03:56:17.695Z,13.53
2018-05-03T03:58:45.243Z,12.97
2018-05-03T04:01:13.620Z,13.90
2018-05-03T04:03:41.167Z,15.13
2018-05-03T04:06:09.466Z,14.77
2018-05-03T04:08:36.991Z,16.43
2018-05-03T04:11:04.541Z,16.13
2018-05-03T04:13:32.078Z,15.10
2018-05-03T04:16:00.380Z,15.37
2018-05-03T04:18:40.261Z,16.90
2018-05-03T04:21:19.649Z,17.93
2018-05-03T04:24:12.588Z,16.67
2018-05-03T04:26:40.883Z,17.90
2018-05-03T04:29:08.409Z,16.73
2018-05-03T04:31:35.944Z,17.73
2018-05-03T04:34:03.458Z,16.20
2018-05-03T04:36:31.803Z,16.30
2018-05-03T04:38:59.369Z,16.30
2018-05-03T04:41:26.967Z,16.23
2018-05-03T04:43:54.470Z,15.60
2018-05-03T04:46:22.043Z,15.70
2018-05-03T04:48:49.612Z,14.37
2018-05-03T04:51:17.226Z,14.13
2018-05-03T04:53:44.832Z,13.70
2018-05-03T04:56:13.118Z,12.30
2018-05-03T04:58:41.419Z,11.53
2018-05-03T05:01:08.934Z,10.43
2018-05-03T05:03:36.476Z,9.87
2018-05-03T05:06:03.984Z,9.20
2018-05-03T05:08:31.534Z,9.57
2018-05-03T05:10:59.817Z,9.93
2018-05-03T05:13:27.332Z,9.43
2018-05-03T05:15:54.899Z,8.93
2018-05-03T05:18:22.464Z,8.83
2018-05-03T05:20:49.977Z,8.70
2018-05-03T05:23:17.515Z,8.50
2018-05-03T05:25:45.106Z,8.03
2018-05-03T05:28:12.648Z,7.43
2018-05-03T05:30:40.279Z,7.00
2018-05-03T05:33:07.750Z,7.57
2018-05-03T05:35:36.103Z,7.20
2018-05-03T05:38:03.652Z,6.63
2018-05-03T05:40:31.250Z,6.43
2018-05-03T05:42:58.811Z,6.17
2018-05-03T05:45:26.347Z,5.90
2018-05-03T05:47:54.632Z,6.10
2018-05-03T05:50:23.199Z,5.80
2018-05-03T05:52:51.672Z,6.17
2018-05-03T05:55:19.205Z,5.77
2018-05-03T05:57:46.789Z,5.73
2018-05-03T06:00:14.329Z,5.70
2018-05-03T06:02:42.333Z,5.30
2018-05-03T06:05:10.840Z,5.07
2018-05-03T06:07:38.961Z,5.07
2018-05-03T06:10:06.499Z,5.10
2018-05-03T06:12:34.014Z,4.97
2018-05-03T06:15:02.291Z,4.33
2018-05-03T06:17:30.584Z,4.47
2018-05-03T06:19:58.816Z,4.77
2018-05-03T06:22:26.378Z,4.73
2018-05-03T06:24:53.928Z,4.77
2018-05-03T06:27:21.499Z,4.33
2018-05-03T06:29:49.036Z,4.20
2018-05-03T06:32:16.553Z,4.30
2018-05-03T06:34:44.082Z,4.10
2018-05-03T06:37:13.455Z,4.07
2018-05-03T06:39:43.805Z,4.13
2018-05-03T06:42:11.385Z,3.60
2018-05-03T06:44:40.304Z,4.00
2018-05-03T06:47:08.400Z,3.60
2018-05-03T06:49:35.976Z,3.50
2018-05-03T06:52:03.557Z,3.80
2018-05-03T06:54:31.845Z,4.43
2018-05-03T06:57:00.608Z,3.13
2018-05-03T06:59:28.163Z,3.53
2018-05-03T07:01:55.666Z,3.27
2018-05-03T07:04:23.304Z,3.93
2018-05-03T07:06:50.652Z,3.43
2018-05-03T07:09:18.997Z,3.50
2018-05-03T07:11:46.605Z,3.53
2018-05-03T07:14:15.625Z,3.23
2018-05-03T07:16:43.127Z,3.43
2018-05-03T07:19:10.642Z,3.73
2018-05-03T07:21:38.304Z,3.87
2018-05-03T07:24:05.817Z,3.80
2018-05-03T07:26:34.151Z,3.93
2018-05-03T07:29:01.697Z,4.40
2018-05-03T07:31:29.230Z,3.83
2018-05-03T07:33:56.763Z,4.00
2018-05-03T07:36:24.291Z,3.90
2018-05-03T07:38:51.947Z,3.90
2018-05-03T07:41:19.721Z,4.20
2018-05-03T07:43:47.353Z,4.07
2018-05-03T07:46:14.896Z,3.90
2018-05-03T07:48:42.473Z,3.77
2018-05-03T07:51:12.971Z,4.50
2018-05-03T07:53:40.439Z,4.60
2018-05-03T07:56:08.035Z,4.37
2018-05-03T07:58:35.620Z,4.40
2018-05-03T08:01:03.958Z,4.70
2018-05-03T08:03:31.638Z,4.83
2018-05-03T08:05:59.155Z,4.80
2018-05-03T08:08:26.733Z,4.80
2018-05-03T08:10:55.230Z,4.57
2018-05-03T08:13:22.834Z,4.40
2018-05-03T08:15:51.164Z,4.50
2018-05-03T08:18:19.417Z,4.57
2018-05-03T08:20:46.976Z,4.03
2018-05-03T08:23:14.615Z,4.17
2018-05-03T08:25:42.921Z,5.63
2018-05-03T08:28:19.168Z,5.03
2018-05-03T08:30:46.867Z,4.37
2018-05-03T08:33:16.989Z,4.67
2018-05-03T08:35:46.684Z,4.80
2018-05-03T08:38:15.142Z,4.73
2018-05-03T08:40:43.383Z,4.67
2018-05-03T08:43:10.927Z,5.20
2018-05-03T08:45:38.525Z,4.40
2018-05-03T08:48:06.825Z,4.73
2018-05-03T08:50:34.370Z,3.90
2018-05-03T08:53:03.773Z,4.63
2018-05-03T08:55:33.822Z,4.30
2018-05-03T08:58:01.390Z,4.20
2018-05-03T09:00:28.921Z,3.80
2018-05-03T09:02:57.021Z,4.80
2018-05-03T09:05:28.270Z,4.50
2018-05-03T09:07:55.873Z,3.80
2018-05-03T09:10:23.504Z,5.13
2018-05-03T09:12:52.017Z,4.03
2018-05-03T09:15:20.321Z,3.13
2018-05-03T09:17:48.733Z,3.63
2018-05-03T09:20:17.027Z,3.83
2018-05-03T09:22:45.084Z,4.03
2018-05-03T09:25:13.640Z,3.13
2018-05-03T09:27:41.911Z,3.40
2018-05-03T09:30:10.462Z,2.97
2018-05-03T09:32:38.768Z,2.97
2018-05-03T09:35:07.260Z,2.60
2018-05-03T09:37:35.596Z,2.60
2018-05-03T09:40:04.332Z,2.90
2018-05-03T09:42:32.332Z,2.40
2018-05-03T09:45:00.383Z,2.80
2018-05-03T09:47:28.175Z,2.70
2018-05-03T09:49:56.482Z,2.97
2018-05-03T09:52:24.324Z,2.60
2018-05-03T09:54:52.237Z,2.77
2018-05-03T09:57:20.538Z,3.00
2018-05-03T09:59:48.149Z,2.50
2018-05-03T10:02:16.467Z,2.50
2018-05-03T10:04:44.882Z,2.20
2018-05-03T10:07:13.386Z,2.70
2018-05-03T10:09:41.097Z,2.57
2018-05-03T10:12:09.442Z,3.33
2018-05-03T10:14:37.021Z,2.70
2018-05-03T10:17:05.771Z,3.23
2018-05-03T10:19:34.788Z,2.60
2018-05-03T10:22:03.312Z,3.00
2018-05-03T10:24:31.781Z,3.17
2018-05-03T10:26:59.480Z,3.13
2018-05-03T10:29:28.510Z,3.33
2018-05-03T10:31:56.669Z,3.20
2018-05-03T10:34:24.531Z,2.90
2018-05-03T10:36:52.890Z,3.30
2018-05-03T10:39:21.706Z,3.17
2018-05-03T10:41:49.576Z,3.37
2018-05-03T10:44:17.996Z,3.03
2018-05-03T10:46:46.450Z,3.50
2018-05-03T10:49:15.207Z,3.47
2018-05-03T10:51:44.846Z,3.37
2018-05-03T10:54:12.522Z,3.43
2018-05-03T10:56:40.095Z,3.20
2018-05-03T10:59:08.911Z,3.67
2018-05-03T11:01:37.217Z,3.37
2018-05-03T11:04:04.789Z,3.50
2018-05-03T11:06:32.722Z,3.43
2018-05-03T11:09:00.307Z,3.70
2018-05-03T11:11:27.840Z,4.03
2018-05-03T11:13:56.231Z,3.80
2018-05-03T11:16:24.630Z,4.10
2018-05-03T11:18:52.672Z,3.43
2018-05-03T11:21:23.956Z,3.30
2018-05-03T11:23:53.090Z,3.40
2018-05-03T11:26:20.718Z,3.60
2018-05-03T11:28:49.951Z,3.13
2018-05-03T11:31:20.655Z,3.67
2018-05-03T11:33:54.956Z,3.07
2018-05-03T11:36:23.638Z,3.37
2018-05-03T11:38:52.911Z,3.30
2018-05-03T11:41:21.238Z,3.60
2018-05-03T11:43:51.250Z,3.30
2018-05-03T11:46:26.076Z,3.90
2018-05-03T11:48:55.554Z,3.67
2018-05-03T11:51:23.272Z,3.53
2018-05-03T11:53:55.328Z,3.60
2018-05-03T11:56:23.959Z,3.80
2018-05-03T11:58:53.944Z,4.70
2018-05-03T12:01:23.410Z,4.57
2018-05-03T12:03:50.943Z,3.73
2018-05-03T12:06:18.482Z,3.73
2018-05-03T12:08:46.790Z,4.33
2018-05-03T12:11:14.288Z,3.97
2018-05-03T12:13:41.836Z,3.77
2018-05-03T12:16:09.416Z,4.13
2018-05-03T12:18:38.470Z,3.70
2018-05-03T12:21:05.990Z,3.73
2018-05-03T12:23:33.556Z,4.30
2018-05-03T12:26:01.085Z,3.80
2018-05-03T12:28:28.978Z,3.90
2018-05-03T12:30:57.207Z,4.10
2018-05-03T12:33:24.729Z,4.30
2018-05-03T12:35:55.223Z,3.90
2018-05-03T12:38:23.492Z,3.73
2018-05-03T12:40:51.839Z,3.87
2018-05-03T12:43:19.362Z,3.80
2018-05-03T12:45:46.896Z,4.13
2018-05-03T12:48:15.228Z,3.43
2018-05-03T12:50:42.823Z,4.20
2018-05-03T12:53:10.374Z,3.80
2018-05-03T12:55:38.664Z,4.47
2018-05-03T12:58:06.960Z,3.80
2018-05-03T13:00:34.805Z,3.70
2018-05-03T13:03:03.695Z,3.93
2018-05-03T13:05:31.243Z,3.60
2018-05-03T13:07:58.786Z,3.70
2018-05-03T13:10:27.101Z,3.67
2018-05-03T13:12:55.480Z,4.13
2018-05-03T13:15:24.547Z,3.50
2018-05-03T13:17:52.443Z,4.23
2018-05-03T13:20:20.717Z,3.70
2018-05-03T13:22:49.005Z,3.47
2018-05-03T13:25:16.540Z,3.90
2018-05-03T13:27:44.836Z,3.60
2018-05-03T13:30:12.363Z,3.37
2018-05-03T13:32:40.065Z,3.37
2018-05-03T13:35:07.598Z,3.70
2018-05-03T13:37:38.493Z,3.60
2018-05-03T13:40:06.946Z,3.40
2018-05-03T13:42:34.496Z,3.23
2018-05-03T13:45:02.070Z,3.70
2018-05-03T13:47:29.584Z,3.80
2018-05-03T13:49:57.117Z,3.37
2018-05-03T13:52:24.726Z,3.30
2018-05-03T13:54:53.023Z,3.70
2018-05-03T13:57:20.549Z,3.50
2018-05-03T13:59:48.888Z,3.60
2018-05-03T14:02:16.427Z,3.10
2018-05-03T14:04:43.967Z,2.77
2018-05-03T14:07:11.558Z,2.83
2018-05-03T14:09:39.817Z,3.33
2018-05-03T14:12:07.349Z,3.40
2018-05-03T14:14:35.658Z,2.93
2018-05-03T14:17:03.189Z,3.67
2018-05-03T14:19:30.744Z,3.60
2018-05-03T14:21:59.058Z,3.10
2018-05-03T14:24:26.577Z,2.80
2018-05-03T14:26:54.923Z,2.87
2018-05-03T14:29:22.477Z,3.23
2018-05-03T14:31:50.052Z,2.97
2018-05-03T14:34:19.359Z,2.97
2018-05-03T14:36:47.665Z,3.00
2018-05-03T14:39:15.206Z,3.07
2018-05-03T14:41:43.517Z,2.97
2018-05-03T14:44:11.055Z,3.13
2018-05-03T14:46:38.597Z,3.03
2018-05-03T14:49:06.885Z,3.30
2018-05-03T14:51:34.417Z,2.87
2018-05-03T14:54:01.960Z,3.33
2018-05-03T14:56:29.498Z,3.03
2018-05-03T14:58:57.063Z,3.27
2018-05-03T15:01:24.608Z,3.00
2018-05-03T15:03:52.213Z,3.20
2018-05-03T15:06:19.774Z,2.70
2018-05-03T15:08:47.275Z,3.20
2018-05-03T15:11:14.813Z,3.07
2018-05-03T15:13:43.106Z,2.73
2018-05-03T15:16:10.759Z,3.00
2018-05-03T15:18:39.035Z,3.10
2018-05-03T15:21:07.533Z,3.10
2018-05-03T15:23:35.896Z,2.90
2018-05-03T15:26:03.444Z,3.10
2018-05-03T15:28:31.726Z,2.73
2018-05-03T15:30:59.849Z,2.80
2018-05-03T15:33:27.391Z,3.00
2018-05-03T15:35:54.966Z,3.10
2018-05-03T15:38:22.513Z,2.80
2018-05-03T15:40:50.079Z,2.77
2018-05-03T15:43:17.619Z,2.50
2018-05-03T15:45:45.178Z,3.13
2018-05-03T15:48:12.729Z,2.77
2018-05-03T15:50:40.283Z,2.80
2018-05-03T15:53:07.789Z,2.80
2018-05-03T15:55:35.322Z,2.70
2018-05-03T15:58:02.870Z,2.80
2018-05-03T16:00:30.391Z,2.90
2018-05-03T16:02:58.709Z,2.40
2018-05-03T16:05:27.009Z,2.93
2018-05-03T16:07:54.567Z,2.73
2018-05-03T16:10:22.079Z,2.70
2018-05-03T16:12:49.607Z,2.93
2018-05-03T16:15:17.149Z,2.57
2018-05-03T16:17:44.713Z,2.60
2018-05-03T16:20:12.244Z,2.63
2018-05-03T16:22:39.762Z,2.37
2018-05-03T16:25:08.071Z,2.47
2018-05-03T16:27:35.593Z,2.50
2018-05-03T16:30:03.952Z,3.00
2018-05-03T16:32:31.469Z,2.67
2018-05-03T16:34:59.043Z,2.90
2018-05-03T16:37:26.617Z,2.70
2018-05-03T16:39:54.194Z,2.67
2018-05-03T16:42:21.885Z,2.10
2018-05-03T16:44:49.457Z,3.07
2018-05-03T16:47:18.002Z,2.83
2018-05-03T16:49:46.282Z,2.57
2018-05-03T16:52:14.588Z,2.77
2018-05-03T16:54:42.135Z,2.93
2018-05-03T16:57:10.439Z,2.50
2018-05-03T16:59:38.551Z,2.53
2018-05-03T17:02:06.075Z,2.63
2018-05-03T17:04:33.587Z,3.10
2018-05-03T17:07:01.862Z,2.73
2018-05-03T17:09:30.171Z,3.00
2018-05-03T17:11:57.705Z,2.87
2018-05-03T17:14:26.007Z,2.53
2018-05-03T17:16:53.525Z,2.90
2018-05-03T17:19:21.055Z,3.13
2018-05-03T17:21:48.593Z,2.23
2018-05-03T17:24:16.139Z,2.53
2018-05-03T17:26:43.674Z,2.90
2018-05-03T17:29:12.749Z,2.50
2018-05-03T17:31:40.265Z,2.63
2018-05-03T17:34:07.779Z,2.47
2018-05-03T17:36:36.072Z,2.60
2018-05-03T17:39:04.422Z,3.17
2018-05-03T17:41:32.764Z,2.77
2018-05-03T17:44:00.346Z,2.70
2018-05-03T17:46:27.964Z,3.27
2018-05-03T17:48:55.511Z,3.50
2018-05-03T17:51:23.145Z,3.23
2018-05-03T17:53:50.577Z,2.60
2018-05-03T17:56:18.105Z,2.93
2018-05-03T17:58:45.668Z,2.63
2018-05-03T18:01:13.217Z,2.73
2018-05-03T18:03:40.742Z,2.97
2018-05-03T18:06:09.025Z,2.53
2018-05-03T18:08:37.329Z,2.67
2018-05-03T18:11:05.824Z,2.63
2018-05-03T18:13:33.436Z,2.60
2018-05-03T18:16:01.717Z,2.60
2018-05-03T18:18:30.047Z,2.40
2018-05-03T18:20:57.558Z,2.37
2018-05-03T18:23:25.858Z,2.50
2018-05-03T18:25:53.392Z,2.60
2018-05-03T18:28:21.699Z,2.40
2018-05-03T18:30:49.242Z,2.30
2018-05-03T18:33:16.800Z,2.40
2018-05-03T18:35:44.313Z,2.70
2018-05-03T18:38:11.859Z,2.90
2018-05-03T18:40:39.380Z,2.33
2018-05-03T18:43:06.897Z,2.70
2018-05-03T18:45:34.435Z,2.30
2018-05-03T18:48:01.956Z,2.87
2018-05-03T18:50:29.521Z,2.47
2018-05-03T18:52:57.071Z,2.77
2018-05-03T18:55:24.693Z,3.13
2018-05-03T18:57:52.280Z,2.77
2018-05-03T19:00:21.379Z,3.30
2018-05-03T19:02:49.694Z,3.10
2018-05-03T19:05:17.226Z,3.10
2018-05-03T19:07:44.770Z,3.60
2018-05-03T19:10:13.189Z,3.20
2018-05-03T19:12:40.764Z,3.53
2018-05-03T19:15:08.332Z,3.67
2018-05-03T19:17:36.768Z,4.10
2018-05-03T19:20:04.306Z,4.23
2018-05-03T19:22:32.603Z,3.83
2018-05-03T19:25:00.111Z,3.83
2018-05-03T19:27:27.715Z,4.10
2018-05-03T19:29:55.256Z,3.80
2018-05-03T19:32:23.551Z,4.20
2018-05-03T19:34:51.080Z,4.13
2018-05-03T19:37:19.393Z,4.33
2018-05-03T19:39:46.952Z,3.90
2018-05-03T19:42:14.487Z,4.20
2018-05-03T19:44:42.790Z,4.20
2018-05-03T19:47:10.321Z,4.13
2018-05-03T19:49:38.637Z,4.17
2018-05-03T19:52:06.910Z,4.17
2018-05-03T19:54:34.444Z,4.50
2018-05-03T19:57:01.989Z,3.60
2018-05-03T19:59:30.273Z,4.10
2018-05-03T20:01:58.593Z,3.83
2018-05-03T20:04:26.147Z,5.53
2018-05-03T20:06:53.714Z,4.83
2018-05-03T20:09:21.225Z,4.60
2018-05-03T20:11:50.250Z,4.77
2018-05-03T20:14:17.774Z,4.63
2018-05-03T20:16:46.791Z,4.63
2018-05-03T20:19:14.357Z,4.47
2018-05-03T20:21:41.888Z,4.33
2018-05-03T20:24:10.189Z,4.50
2018-05-03T20:26:37.734Z,4.73
2018-05-03T20:29:05.265Z,4.10
2018-05-03T20:31:32.798Z,3.80
2018-05-03T20:34:00.320Z,3.63
2018-05-03T20:36:27.865Z,4.00
2018-05-03T20:38:55.399Z,4.20
2018-05-03T20:41:22.925Z,4.40
2018-05-03T20:43:50.463Z,4.43
2018-05-03T20:46:19.326Z,4.20
2018-05-03T20:48:46.896Z,4.07
2018-05-03T20:51:14.434Z,4.00
2018-05-03T20:53:42.738Z,4.10
2018-05-03T20:56:10.284Z,4.40
2018-05-03T20:58:37.864Z,4.57
2018-05-03T21:01:05.384Z,4.20
2018-05-03T21:03:33.681Z,4.10
2018-05-03T21:06:02.112Z,3.63
2018-05-03T21:08:29.664Z,4.40
2018-05-03T21:10:57.247Z,3.97
2018-05-03T21:13:24.790Z,4.17
2018-05-03T21:15:52.341Z,3.90
2018-05-03T21:18:19.874Z,3.60
2018-05-03T21:20:47.407Z,3.77
2018-05-03T21:23:15.689Z,3.90
2018-05-03T21:25:43.231Z,4.10
2018-05-03T21:28:11.509Z,3.80
2018-05-03T21:30:39.778Z,3.70
2018-05-03T21:33:08.077Z,3.80
2018-05-03T21:35:35.578Z,4.27
2018-05-03T21:38:03.127Z,3.40
2018-05-03T21:40:30.673Z,3.60
2018-05-03T21:42:58.233Z,3.57
2018-05-03T21:45:25.752Z,3.43
2018-05-03T21:47:54.039Z,3.27
2018-05-03T21:50:22.409Z,4.07
2018-05-03T21:52:50.706Z,3.87
2018-05-03T21:55:18.888Z,3.53
2018-05-03T21:57:46.424Z,4.00
2018-05-03T22:00:14.713Z,2.90
2018-05-03T22:02:42.267Z,4.30
2018-05-03T22:05:09.792Z,3.60
2018-05-03T22:07:37.348Z,3.37
2018-05-03T22:10:04.850Z,3.23
2018-05-03T22:12:32.367Z,3.60
2018-05-03T22:14:59.876Z,3.30
2018-05-03T22:17:27.372Z,3.40
2018-05-03T22:19:54.910Z,3.27
2018-05-03T22:22:22.464Z,3.60
2018-05-03T22:24:50.688Z,3.13
2018-05-03T22:27:18.272Z,3.10
2018-05-03T22:29:45.778Z,2.90
2018-05-03T22:32:13.347Z,3.77
2018-05-03T22:34:40.857Z,3.13
2018-05-03T22:37:09.109Z,3.73
2018-05-03T22:39:37.391Z,3.30
2018-05-03T22:42:05.661Z,3.10
2018-05-03T22:44:33.955Z,3.93
2018-05-03T22:47:01.497Z,3.03
2018-05-03T22:49:29.791Z,3.33
2018-05-03T22:51:57.307Z,3.33
2018-05-03T22:54:24.809Z,3.40
2018-05-03T22:56:52.314Z,3.40
2018-05-03T22:59:19.823Z,3.63
2018-05-03T23:01:47.328Z,3.87
2018-05-03T23:04:15.750Z,3.50
2018-05-03T23:06:43.268Z,3.90
2018-05-03T23:09:12.241Z,3.30
2018-05-03T23:11:39.764Z,3.80
2018-05-03T23:14:07.274Z,3.93
2018-05-03T23:16:34.785Z,4.10
2018-05-03T23:19:02.307Z,4.27
2018-05-03T23:21:29.873Z,4.20
2018-05-03T23:23:58.165Z,3.97
2018-05-03T23:26:26.523Z,3.87
2018-05-03T23:28:54.026Z,4.40
2018-05-03T23:31:22.200Z,4.57
2018-05-03T23:33:49.708Z,4.00
2018-05-03T23:36:17.315Z,4.53
2018-05-03T23:38:44.811Z,4.10
2018-05-03T23:41:12.382Z,3.53
2018-05-03T23:43:39.906Z,4.67
2018-05-03T23:46:07.433Z,4.27
2018-05-03T23:48:35.754Z,4.37
2018-05-03T23:51:03.282Z,4.03
2018-05-03T23:53:30.780Z,4.30
2018-05-03T23:55:58.281Z,3.80
2018-05-03T23:58:26.540Z,4.00
